Terminal Aerodrome Forecast
Issued by NWS

Home | Current Version | Previous Version | Graphics & Text | Print | Product List | Glossary On
Versions: 1 2 3 4 5 6 7 8 9 10 11 12 13 14 15 16 17 18 19 20 21 22 23
353
FTUS41 KCLE 242324
TAFFDY
TAF
KFDY 242324Z 2500/2524 22013G21KT P6SM SCT050 BKN090
     FM250300 22010KT P6SM BKN050 OVC090
     FM251200 19005KT P6SM OVC080
     FM251600 VRB03KT P6SM BKN035 OVC080
     FM252200 07009KT P6SM BKN040 OVC080=

USA.gov is the U.S. government's official web portal to all federal, state and local government web resources and services.